sensor_id;sensor_type;location;lat;lon;timestamp;P1;durP1;ratioP1;P2;durP2;ratioP2
29206;SDS011;16247;50.840;4.382;2022-12-18T00:01:30;42.88;;;21.98;;
29206;SDS011;16247;50.840;4.382;2022-12-18T00:03:58;34.97;;;18.52;;
29206;SDS011;16247;50.840;4.382;2022-12-18T00:06:27;41.08;;;20.80;;
29206;SDS011;16247;50.840;4.382;2022-12-18T00:08:54;38.00;;;20.70;;
29206;SDS011;16247;50.840;4.382;2022-12-18T00:11:22;45.58;;;20.70;;
29206;SDS011;16247;50.840;4.382;2022-12-18T00:13:49;35.45;;;18.75;;
29206;SDS011;16247;50.840;4.382;2022-12-18T00:16:19;41.70;;;21.15;;
29206;SDS011;16247;50.840;4.382;2022-12-18T00:18:47;41.67;;;20.73;;
29206;SDS011;16247;50.840;4.382;2022-12-18T00:21:13;35.53;;;18.55;;
29206;SDS011;16247;50.840;4.382;2022-12-18T00:23:40;38.78;;;19.77;;
29206;SDS011;16247;50.840;4.382;2022-12-18T00:26:10;36.40;;;18.30;;
29206;SDS011;16247;50.840;4.382;2022-12-18T00:28:37;40.25;;;19.77;;
29206;SDS011;16247;50.840;4.382;2022-12-18T00:31:04;38.55;;;18.73;;
29206;SDS011;16247;50.840;4.382;2022-12-18T00:33:31;33.65;;;20.08;;
29206;SDS011;16247;50.840;4.382;2022-12-18T00:36:04;34.92;;;18.33;;
29206;SDS011;16247;50.840;4.382;2022-12-18T00:38:57;34.25;;;18.35;;
29206;SDS011;16247;50.840;4.382;2022-12-18T00:41:23;34.45;;;17.42;;
29206;SDS011;16247;50.840;4.382;2022-12-18T00:44:09;32.70;;;17.38;;
29206;SDS011;16247;50.840;4.382;2022-12-18T00:46:36;37.10;;;18.45;;
29206;SDS011;16247;50.840;4.382;2022-12-18T00:49:02;39.60;;;18.38;;
29206;SDS011;16247;50.840;4.382;2022-12-18T00:51:28;33.85;;;17.88;;
29206;SDS011;16247;50.840;4.382;2022-12-18T00:53:54;33.55;;;17.25;;
29206;SDS011;16247;50.840;4.382;2022-12-18T00:56:20;30.15;;;16.63;;
29206;SDS011;16247;50.840;4.382;2022-12-18T00:58:46;31.10;;;16.13;;
29206;SDS011;16247;50.840;4.382;2022-12-18T01:01:12;30.05;;;17.30;;
29206;SDS011;16247;50.840;4.382;2022-12-18T01:03:38;33.72;;;18.17;;
29206;SDS011;16247;50.840;4.382;2022-12-18T01:06:10;32.08;;;16.67;;
29206;SDS011;16247;50.840;4.382;2022-12-18T01:08:37;28.05;;;15.52;;
29206;SDS011;16247;50.840;4.382;2022-12-18T01:11:16;28.88;;;16.42;;
29206;SDS011;16247;50.840;4.382;2022-12-18T01:13:44;32.22;;;17.48;;
29206;SDS011;16247;50.840;4.382;2022-12-18T01:16:13;32.67;;;17.02;;
29206;SDS011;16247;50.840;4.382;2022-12-18T01:18:41;32.20;;;17.52;;
29206;SDS011;16247;50.840;4.382;2022-12-18T01:21:10;29.65;;;15.32;;
29206;SDS011;16247;50.840;4.382;2022-12-18T01:23:39;28.35;;;15.55;;
29206;SDS011;16247;50.840;4.382;2022-12-18T01:26:08;29.83;;;16.55;;
29206;SDS011;16247;50.840;4.382;2022-12-18T01:28:36;26.27;;;15.15;;
29206;SDS011;16247;50.840;4.382;2022-12-18T01:31:12;26.88;;;14.63;;
29206;SDS011;16247;50.840;4.382;2022-12-18T01:33:40;27.45;;;13.68;;
29206;SDS011;16247;50.840;4.382;2022-12-18T01:36:08;28.08;;;12.98;;
29206;SDS011;16247;50.840;4.382;2022-12-18T01:38:43;26.45;;;14.18;;
29206;SDS011;16247;50.840;4.382;2022-12-18T01:41:10;26.15;;;13.27;;
29206;SDS011;16247;50.840;4.382;2022-12-18T01:43:50;23.75;;;13.25;;
29206;SDS011;16247;50.840;4.382;2022-12-18T01:46:18;26.80;;;12.80;;
29206;SDS011;16247;50.840;4.382;2022-12-18T01:48:47;25.58;;;13.40;;
29206;SDS011;16247;50.840;4.382;2022-12-18T01:51:15;26.38;;;13.13;;
29206;SDS011;16247;50.840;4.382;2022-12-18T01:53:42;25.83;;;13.45;;
29206;SDS011;16247;50.840;4.382;2022-12-18T01:56:12;24.48;;;13.15;;
29206;SDS011;16247;50.840;4.382;2022-12-18T01:58:59;23.08;;;12.75;;
29206;SDS011;16247;50.840;4.382;2022-12-18T02:01:31;23.85;;;12.77;;
29206;SDS011;16247;50.840;4.382;2022-12-18T02:04:19;24.73;;;13.35;;
29206;SDS011;16247;50.840;4.382;2022-12-18T02:06:45;24.15;;;12.23;;
29206;SDS011;16247;50.840;4.382;2022-12-18T02:09:14;25.42;;;12.98;;
29206;SDS011;16247;50.840;4.382;2022-12-18T02:17:04;22.75;;;12.15;;
29206;SDS011;16247;50.840;4.382;2022-12-18T02:27:28;22.23;;;11.73;;
29206;SDS011;16247;50.840;4.382;2022-12-18T02:29:57;21.88;;;11.27;;
29206;SDS011;16247;50.840;4.382;2022-12-18T02:32:34;19.65;;;10.73;;
29206;SDS011;16247;50.840;4.382;2022-12-18T02:35:04;20.10;;;10.77;;
29206;SDS011;16247;50.840;4.382;2022-12-18T02:37:32;25.58;;;12.50;;
29206;SDS011;16247;50.840;4.382;2022-12-18T02:39:59;23.40;;;11.73;;
29206;SDS011;16247;50.840;4.382;2022-12-18T02:42:33;23.15;;;12.05;;
29206;SDS011;16247;50.840;4.382;2022-12-18T02:44:59;23.25;;;11.57;;
29206;SDS011;16247;50.840;4.382;2022-12-18T02:47:27;20.60;;;11.50;;
29206;SDS011;16247;50.840;4.382;2022-12-18T02:56:03;27.83;;;11.02;;
29206;SDS011;16247;50.840;4.382;2022-12-18T02:59:00;21.25;;;10.85;;
29206;SDS011;16247;50.840;4.382;2022-12-18T03:01:36;20.02;;;9.90;;
29206;SDS011;16247;50.840;4.382;2022-12-18T03:04:09;25.08;;;11.07;;
29206;SDS011;16247;50.840;4.382;2022-12-18T03:06:48;25.05;;;12.98;;
29206;SDS011;16247;50.840;4.382;2022-12-18T03:09:17;22.13;;;11.13;;
29206;SDS011;16247;50.840;4.382;2022-12-18T03:11:50;22.52;;;11.30;;
29206;SDS011;16247;50.840;4.382;2022-12-18T03:14:42;23.27;;;10.57;;
29206;SDS011;16247;50.840;4.382;2022-12-18T03:17:11;24.25;;;11.73;;
29206;SDS011;16247;50.840;4.382;2022-12-18T03:19:41;19.13;;;10.82;;
29206;SDS011;16247;50.840;4.382;2022-12-18T03:22:11;22.30;;;11.25;;
29206;SDS011;16247;50.840;4.382;2022-12-18T03:24:44;20.75;;;11.10;;
29206;SDS011;16247;50.840;4.382;2022-12-18T03:27:26;24.30;;;10.93;;
29206;SDS011;16247;50.840;4.382;2022-12-18T03:30:05;21.90;;;11.98;;
29206;SDS011;16247;50.840;4.382;2022-12-18T03:35:24;20.83;;;10.38;;
29206;SDS011;16247;50.840;4.382;2022-12-18T03:37:54;20.08;;;10.80;;
29206;SDS011;16247;50.840;4.382;2022-12-18T03:40:20;22.73;;;10.93;;
29206;SDS011;16247;50.840;4.382;2022-12-18T03:43:08;18.83;;;9.52;;
29206;SDS011;16247;50.840;4.382;2022-12-18T03:45:41;24.02;;;11.18;;
29206;SDS011;16247;50.840;4.382;2022-12-18T03:48:20;22.75;;;10.45;;
29206;SDS011;16247;50.840;4.382;2022-12-18T03:53:27;17.25;;;9.43;;
29206;SDS011;16247;50.840;4.382;2022-12-18T03:55:54;21.83;;;11.13;;
29206;SDS011;16247;50.840;4.382;2022-12-18T03:58:22;22.27;;;10.43;;
29206;SDS011;16247;50.840;4.382;2022-12-18T04:00:50;16.85;;;9.48;;
29206;SDS011;16247;50.840;4.382;2022-12-18T04:03:19;22.10;;;10.93;;
29206;SDS011;16247;50.840;4.382;2022-12-18T04:05:47;21.50;;;12.00;;
29206;SDS011;16247;50.840;4.382;2022-12-18T04:08:16;22.90;;;9.95;;
29206;SDS011;16247;50.840;4.382;2022-12-18T04:10:42;18.85;;;10.07;;
29206;SDS011;16247;50.840;4.382;2022-12-18T04:13:08;18.38;;;9.30;;
29206;SDS011;16247;50.840;4.382;2022-12-18T04:15:34;18.67;;;10.13;;
29206;SDS011;16247;50.840;4.382;2022-12-18T04:18:02;17.27;;;10.13;;
29206;SDS011;16247;50.840;4.382;2022-12-18T04:20:28;18.63;;;9.65;;
29206;SDS011;16247;50.840;4.382;2022-12-18T04:22:53;22.65;;;10.90;;
29206;SDS011;16247;50.840;4.382;2022-12-18T04:25:19;22.10;;;10.07;;
29206;SDS011;16247;50.840;4.382;2022-12-18T04:27:45;17.38;;;9.05;;
29206;SDS011;16247;50.840;4.382;2022-12-18T04:30:10;22.08;;;9.75;;
29206;SDS011;16247;50.840;4.382;2022-12-18T04:32:36;20.98;;;9.95;;
29206;SDS011;16247;50.840;4.382;2022-12-18T04:35:02;19.30;;;9.13;;
29206;SDS011;16247;50.840;4.382;2022-12-18T04:37:31;20.88;;;9.98;;
29206;SDS011;16247;50.840;4.382;2022-12-18T04:39:58;18.52;;;8.57;;
29206;SDS011;16247;50.840;4.382;2022-12-18T04:42:23;18.65;;;10.23;;
29206;SDS011;16247;50.840;4.382;2022-12-18T04:44:50;17.73;;;8.93;;
29206;SDS011;16247;50.840;4.382;2022-12-18T04:47:16;20.05;;;9.73;;
29206;SDS011;16247;50.840;4.382;2022-12-18T04:49:41;21.98;;;9.73;;
29206;SDS011;16247;50.840;4.382;2022-12-18T04:52:07;19.40;;;9.60;;
29206;SDS011;16247;50.840;4.382;2022-12-18T04:54:33;17.83;;;9.30;;
29206;SDS011;16247;50.840;4.382;2022-12-18T04:56:58;19.10;;;10.25;;
29206;SDS011;16247;50.840;4.382;2022-12-18T04:59:24;15.85;;;9.10;;
29206;SDS011;16247;50.840;4.382;2022-12-18T05:01:50;16.42;;;9.27;;
29206;SDS011;16247;50.840;4.382;2022-12-18T05:04:15;22.27;;;10.15;;
29206;SDS011;16247;50.840;4.382;2022-12-18T05:06:41;27.67;;;10.65;;
29206;SDS011;16247;50.840;4.382;2022-12-18T05:09:07;21.80;;;10.27;;
29206;SDS011;16247;50.840;4.382;2022-12-18T05:11:32;21.55;;;9.95;;
29206;SDS011;16247;50.840;4.382;2022-12-18T05:13:58;20.25;;;9.40;;
29206;SDS011;16247;50.840;4.382;2022-12-18T05:16:23;15.82;;;8.77;;
29206;SDS011;16247;50.840;4.382;2022-12-18T05:18:49;18.98;;;9.38;;
29206;SDS011;16247;50.840;4.382;2022-12-18T05:21:15;20.17;;;9.70;;
29206;SDS011;16247;50.840;4.382;2022-12-18T05:23:41;16.00;;;8.48;;
29206;SDS011;16247;50.840;4.382;2022-12-18T05:26:07;20.15;;;9.27;;
29206;SDS011;16247;50.840;4.382;2022-12-18T05:28:34;20.48;;;8.75;;
29206;SDS011;16247;50.840;4.382;2022-12-18T05:31:03;18.50;;;9.38;;
29206;SDS011;16247;50.840;4.382;2022-12-18T05:33:31;19.00;;;9.93;;
29206;SDS011;16247;50.840;4.382;2022-12-18T05:35:59;18.90;;;8.90;;
29206;SDS011;16247;50.840;4.382;2022-12-18T05:38:26;17.30;;;9.55;;
29206;SDS011;16247;50.840;4.382;2022-12-18T05:40:53;16.77;;;8.35;;
29206;SDS011;16247;50.840;4.382;2022-12-18T05:43:19;16.67;;;8.30;;
29206;SDS011;16247;50.840;4.382;2022-12-18T05:45:47;17.02;;;8.70;;
29206;SDS011;16247;50.840;4.382;2022-12-18T05:48:14;18.88;;;8.88;;
29206;SDS011;16247;50.840;4.382;2022-12-18T05:50:41;19.08;;;8.43;;
29206;SDS011;16247;50.840;4.382;2022-12-18T05:53:08;16.02;;;8.00;;
29206;SDS011;16247;50.840;4.382;2022-12-18T05:55:37;19.38;;;8.45;;
29206;SDS011;16247;50.840;4.382;2022-12-18T06:00:34;19.13;;;7.80;;
29206;SDS011;16247;50.840;4.382;2022-12-18T06:03:02;16.98;;;7.82;;
29206;SDS011;16247;50.840;4.382;2022-12-18T06:05:27;15.73;;;7.00;;
29206;SDS011;16247;50.840;4.382;2022-12-18T06:07:53;16.77;;;8.35;;
29206;SDS011;16247;50.840;4.382;2022-12-18T06:10:20;17.05;;;7.95;;
29206;SDS011;16247;50.840;4.382;2022-12-18T06:12:45;14.63;;;8.20;;
29206;SDS011;16247;50.840;4.382;2022-12-18T06:15:11;16.27;;;7.82;;
29206;SDS011;16247;50.840;4.382;2022-12-18T06:17:37;15.32;;;7.07;;
29206;SDS011;16247;50.840;4.382;2022-12-18T06:20:03;15.10;;;7.15;;
29206;SDS011;16247;50.840;4.382;2022-12-18T06:22:32;13.02;;;7.75;;
29206;SDS011;16247;50.840;4.382;2022-12-18T06:24:58;15.20;;;8.70;;
29206;SDS011;16247;50.840;4.382;2022-12-18T06:27:24;17.75;;;8.15;;
29206;SDS011;16247;50.840;4.382;2022-12-18T06:29:50;15.13;;;7.85;;
29206;SDS011;16247;50.840;4.382;2022-12-18T06:32:15;13.55;;;6.88;;
29206;SDS011;16247;50.840;4.382;2022-12-18T06:34:41;13.13;;;7.28;;
29206;SDS011;16247;50.840;4.382;2022-12-18T06:37:07;13.95;;;7.32;;
29206;SDS011;16247;50.840;4.382;2022-12-18T06:39:33;14.82;;;7.40;;
29206;SDS011;16247;50.840;4.382;2022-12-18T06:41:59;15.27;;;7.43;;
29206;SDS011;16247;50.840;4.382;2022-12-18T06:44:25;12.35;;;7.10;;
29206;SDS011;16247;50.840;4.382;2022-12-18T06:46:52;12.70;;;6.28;;
29206;SDS011;16247;50.840;4.382;2022-12-18T06:49:19;15.52;;;7.63;;
29206;SDS011;16247;50.840;4.382;2022-12-18T06:54:14;11.90;;;6.40;;
29206;SDS011;16247;50.840;4.382;2022-12-18T06:56:40;14.07;;;7.13;;
29206;SDS011;16247;50.840;4.382;2022-12-18T06:59:06;14.23;;;7.43;;
29206;SDS011;16247;50.840;4.382;2022-12-18T07:01:32;14.32;;;7.82;;
29206;SDS011;16247;50.840;4.382;2022-12-18T07:03:57;11.18;;;5.80;;
29206;SDS011;16247;50.840;4.382;2022-12-18T07:06:24;15.70;;;6.90;;
29206;SDS011;16247;50.840;4.382;2022-12-18T07:08:51;14.35;;;6.90;;
29206;SDS011;16247;50.840;4.382;2022-12-18T07:11:19;9.73;;;6.32;;
29206;SDS011;16247;50.840;4.382;2022-12-18T07:13:45;13.43;;;7.00;;
29206;SDS011;16247;50.840;4.382;2022-12-18T07:16:12;13.27;;;6.57;;
29206;SDS011;16247;50.840;4.382;2022-12-18T07:18:42;12.95;;;6.72;;
29206;SDS011;16247;50.840;4.382;2022-12-18T07:21:09;12.70;;;7.40;;
29206;SDS011;16247;50.840;4.382;2022-12-18T07:23:40;13.88;;;6.97;;
29206;SDS011;16247;50.840;4.382;2022-12-18T07:26:06;14.27;;;7.13;;
29206;SDS011;16247;50.840;4.382;2022-12-18T07:28:34;12.80;;;7.22;;
29206;SDS011;16247;50.840;4.382;2022-12-18T07:31:06;12.98;;;6.78;;
29206;SDS011;16247;50.840;4.382;2022-12-18T07:33:39;13.15;;;6.63;;
29206;SDS011;16247;50.840;4.382;2022-12-18T07:36:06;14.93;;;6.53;;
29206;SDS011;16247;50.840;4.382;2022-12-18T07:38:36;16.50;;;7.43;;
29206;SDS011;16247;50.840;4.382;2022-12-18T07:41:09;12.77;;;6.13;;
29206;SDS011;16247;50.840;4.382;2022-12-18T07:43:38;14.10;;;7.20;;
29206;SDS011;16247;50.840;4.382;2022-12-18T07:46:04;10.48;;;5.63;;
29206;SDS011;16247;50.840;4.382;2022-12-18T07:48:31;12.73;;;6.88;;
29206;SDS011;16247;50.840;4.382;2022-12-18T07:51:13;12.85;;;6.20;;
29206;SDS011;16247;50.840;4.382;2022-12-18T07:56:13;13.07;;;7.07;;
29206;SDS011;16247;50.840;4.382;2022-12-18T07:58:39;13.27;;;6.45;;
29206;SDS011;16247;50.840;4.382;2022-12-18T08:03:34;15.80;;;6.82;;
29206;SDS011;16247;50.840;4.382;2022-12-18T08:06:01;15.25;;;6.80;;
29206;SDS011;16247;50.840;4.382;2022-12-18T08:08:28;13.20;;;7.50;;
29206;SDS011;16247;50.840;4.382;2022-12-18T08:10:54;17.35;;;9.70;;
29206;SDS011;16247;50.840;4.382;2022-12-18T08:13:21;14.57;;;7.45;;
29206;SDS011;16247;50.840;4.382;2022-12-18T08:15:55;13.95;;;7.80;;
29206;SDS011;16247;50.840;4.382;2022-12-18T08:18:22;12.85;;;7.68;;
29206;SDS011;16247;50.840;4.382;2022-12-18T08:20:47;13.40;;;7.00;;
29206;SDS011;16247;50.840;4.382;2022-12-18T08:23:14;13.90;;;7.05;;
29206;SDS011;16247;50.840;4.382;2022-12-18T08:25:39;14.57;;;7.05;;
29206;SDS011;16247;50.840;4.382;2022-12-18T08:28:05;14.65;;;7.72;;
29206;SDS011;16247;50.840;4.382;2022-12-18T08:30:31;13.88;;;6.97;;
29206;SDS011;16247;50.840;4.382;2022-12-18T08:32:56;12.35;;;6.82;;
29206;SDS011;16247;50.840;4.382;2022-12-18T08:35:23;15.38;;;7.00;;
29206;SDS011;16247;50.840;4.382;2022-12-18T08:37:48;13.00;;;6.93;;
29206;SDS011;16247;50.840;4.382;2022-12-18T08:40:14;16.20;;;7.07;;
29206;SDS011;16247;50.840;4.382;2022-12-18T08:42:40;14.45;;;6.93;;
29206;SDS011;16247;50.840;4.382;2022-12-18T08:45:24;11.82;;;5.95;;
29206;SDS011;16247;50.840;4.382;2022-12-18T08:47:51;16.33;;;7.70;;
29206;SDS011;16247;50.840;4.382;2022-12-18T08:50:17;16.15;;;7.50;;
29206;SDS011;16247;50.840;4.382;2022-12-18T08:52:43;15.10;;;7.88;;
29206;SDS011;16247;50.840;4.382;2022-12-18T08:55:09;15.88;;;7.13;;
29206;SDS011;16247;50.840;4.382;2022-12-18T08:57:36;15.07;;;7.55;;
29206;SDS011;16247;50.840;4.382;2022-12-18T09:00:04;16.80;;;7.78;;
29206;SDS011;16247;50.840;4.382;2022-12-18T09:04:55;16.45;;;8.00;;
29206;SDS011;16247;50.840;4.382;2022-12-18T09:07:21;14.93;;;7.43;;
29206;SDS011;16247;50.840;4.382;2022-12-18T09:09:47;14.30;;;7.72;;
29206;SDS011;16247;50.840;4.382;2022-12-18T09:12:12;16.88;;;8.63;;
29206;SDS011;16247;50.840;4.382;2022-12-18T09:14:38;14.10;;;7.82;;
29206;SDS011;16247;50.840;4.382;2022-12-18T09:17:03;16.65;;;7.88;;
29206;SDS011;16247;50.840;4.382;2022-12-18T09:19:29;20.05;;;9.48;;
29206;SDS011;16247;50.840;4.382;2022-12-18T09:21:55;16.85;;;8.20;;
29206;SDS011;16247;50.840;4.382;2022-12-18T09:24:20;15.73;;;8.52;;
29206;SDS011;16247;50.840;4.382;2022-12-18T09:26:46;16.92;;;8.95;;
29206;SDS011;16247;50.840;4.382;2022-12-18T09:29:12;14.90;;;8.15;;
29206;SDS011;16247;50.840;4.382;2022-12-18T09:31:37;19.38;;;8.95;;
29206;SDS011;16247;50.840;4.382;2022-12-18T09:34:03;17.10;;;8.43;;
29206;SDS011;16247;50.840;4.382;2022-12-18T09:36:29;16.50;;;7.95;;
29206;SDS011;16247;50.840;4.382;2022-12-18T09:38:54;15.07;;;8.40;;
29206;SDS011;16247;50.840;4.382;2022-12-18T09:43:53;16.88;;;9.40;;
29206;SDS011;16247;50.840;4.382;2022-12-18T09:46:25;18.38;;;8.93;;
29206;SDS011;16247;50.840;4.382;2022-12-18T09:48:58;19.50;;;10.18;;
29206;SDS011;16247;50.840;4.382;2022-12-18T09:51:33;18.63;;;9.93;;
29206;SDS011;16247;50.840;4.382;2022-12-18T09:54:04;18.52;;;9.82;;
29206;SDS011;16247;50.840;4.382;2022-12-18T09:57:00;24.73;;;10.27;;
29206;SDS011;16247;50.840;4.382;2022-12-18T09:59:29;18.65;;;10.57;;
29206;SDS011;16247;50.840;4.382;2022-12-18T10:02:11;17.25;;;9.98;;
29206;SDS011;16247;50.840;4.382;2022-12-18T10:04:43;21.83;;;10.80;;
29206;SDS011;16247;50.840;4.382;2022-12-18T10:07:19;20.88;;;11.23;;
29206;SDS011;16247;50.840;4.382;2022-12-18T10:15:08;21.27;;;10.65;;
29206;SDS011;16247;50.840;4.382;2022-12-18T10:20:21;19.73;;;10.75;;
29206;SDS011;16247;50.840;4.382;2022-12-18T10:28:30;18.15;;;11.20;;
29206;SDS011;16247;50.840;4.382;2022-12-18T10:30:57;21.13;;;11.95;;
29206;SDS011;16247;50.840;4.382;2022-12-18T10:33:24;24.38;;;12.55;;
29206;SDS011;16247;50.840;4.382;2022-12-18T10:35:54;25.60;;;12.23;;
29206;SDS011;16247;50.840;4.382;2022-12-18T10:38:21;21.35;;;12.07;;
29206;SDS011;16247;50.840;4.382;2022-12-18T10:40:59;23.52;;;11.73;;
29206;SDS011;16247;50.840;4.382;2022-12-18T10:43:26;23.80;;;12.43;;
29206;SDS011;16247;50.840;4.382;2022-12-18T10:45:59;21.33;;;12.43;;
29206;SDS011;16247;50.840;4.382;2022-12-18T10:51:19;20.08;;;11.38;;
29206;SDS011;16247;50.840;4.382;2022-12-18T10:53:59;21.63;;;11.57;;
29206;SDS011;16247;50.840;4.382;2022-12-18T10:56:27;20.85;;;11.60;;
29206;SDS011;16247;50.840;4.382;2022-12-18T10:59:02;22.25;;;12.05;;
29206;SDS011;16247;50.840;4.382;2022-12-18T11:04:24;24.90;;;12.98;;
29206;SDS011;16247;50.840;4.382;2022-12-18T11:07:06;24.15;;;11.77;;
29206;SDS011;16247;50.840;4.382;2022-12-18T11:09:37;24.70;;;13.02;;
29206;SDS011;16247;50.840;4.382;2022-12-18T11:12:08;15.80;;;8.80;;
29206;SDS011;16247;50.840;4.382;2022-12-18T11:14:48;22.05;;;13.02;;
29206;SDS011;16247;50.840;4.382;2022-12-18T11:19:52;23.80;;;12.10;;
29206;SDS011;16247;50.840;4.382;2022-12-18T11:27:51;24.02;;;12.63;;
29206;SDS011;16247;50.840;4.382;2022-12-18T11:32:46;23.38;;;11.95;;
29206;SDS011;16247;50.840;4.382;2022-12-18T11:44:27;23.13;;;11.98;;
29206;SDS011;16247;50.840;4.382;2022-12-18T11:47:04;25.65;;;13.25;;
29206;SDS011;16247;50.840;4.382;2022-12-18T11:49:40;19.92;;;11.68;;
29206;SDS011;16247;50.840;4.382;2022-12-18T11:52:14;21.00;;;11.50;;
29206;SDS011;16247;50.840;4.382;2022-12-18T11:54:50;18.52;;;10.27;;
29206;SDS011;16247;50.840;4.382;2022-12-18T11:57:42;18.40;;;9.65;;
29206;SDS011;16247;50.840;4.382;2022-12-18T12:00:18;24.88;;;12.80;;
29206;SDS011;16247;50.840;4.382;2022-12-18T12:05:29;21.38;;;11.52;;
29206;SDS011;16247;50.840;4.382;2022-12-18T12:10:46;22.13;;;11.50;;
29206;SDS011;16247;50.840;4.382;2022-12-18T12:16:17;21.02;;;11.55;;
29206;SDS011;16247;50.840;4.382;2022-12-18T12:21:41;23.40;;;12.23;;
29206;SDS011;16247;50.840;4.382;2022-12-18T12:24:24;24.83;;;13.00;;
29206;SDS011;16247;50.840;4.382;2022-12-18T12:27:18;28.90;;;11.93;;
29206;SDS011;16247;50.840;4.382;2022-12-18T12:33:28;26.20;;;13.68;;
29206;SDS011;16247;50.840;4.382;2022-12-18T12:39:06;24.08;;;12.75;;
29206;SDS011;16247;50.840;4.382;2022-12-18T12:41:35;23.63;;;12.10;;
29206;SDS011;16247;50.840;4.382;2022-12-18T12:44:23;24.65;;;13.32;;
29206;SDS011;16247;50.840;4.382;2022-12-18T12:46:54;30.08;;;14.23;;
29206;SDS011;16247;50.840;4.382;2022-12-18T12:49:24;27.15;;;14.18;;
29206;SDS011;16247;50.840;4.382;2022-12-18T12:51:58;24.58;;;13.02;;
29206;SDS011;16247;50.840;4.382;2022-12-18T12:54:35;25.08;;;12.98;;
29206;SDS011;16247;50.840;4.382;2022-12-18T13:00:09;28.42;;;14.35;;
29206;SDS011;16247;50.840;4.382;2022-12-18T13:02:39;32.42;;;15.02;;
29206;SDS011;16247;50.840;4.382;2022-12-18T13:05:25;31.63;;;15.43;;
29206;SDS011;16247;50.840;4.382;2022-12-18T13:08:08;29.27;;;14.73;;
29206;SDS011;16247;50.840;4.382;2022-12-18T13:10:36;28.33;;;14.35;;
29206;SDS011;16247;50.840;4.382;2022-12-18T13:13:05;26.08;;;13.07;;
29206;SDS011;16247;50.840;4.382;2022-12-18T13:15:41;28.35;;;16.30;;
29206;SDS011;16247;50.840;4.382;2022-12-18T13:25:54;33.83;;;16.13;;
29206;SDS011;16247;50.840;4.382;2022-12-18T13:31:12;30.15;;;14.48;;
29206;SDS011;16247;50.840;4.382;2022-12-18T13:33:40;29.85;;;15.65;;
29206;SDS011;16247;50.840;4.382;2022-12-18T13:39:08;28.98;;;15.65;;
29206;SDS011;16247;50.840;4.382;2022-12-18T13:41:35;32.40;;;16.85;;
29206;SDS011;16247;50.840;4.382;2022-12-18T13:47:50;33.13;;;15.05;;
29206;SDS011;16247;50.840;4.382;2022-12-18T13:49:59;28.65;;;14.90;;
29206;SDS011;16247;50.840;4.382;2022-12-18T13:52:26;29.65;;;15.00;;
29206;SDS011;16247;50.840;4.382;2022-12-18T13:57:28;36.85;;;15.73;;
29206;SDS011;16247;50.840;4.382;2022-12-18T13:59:58;28.38;;;15.40;;
29206;SDS011;16247;50.840;4.382;2022-12-18T14:02:44;32.58;;;16.50;;
29206;SDS011;16247;50.840;4.382;2022-12-18T14:05:21;29.48;;;15.75;;
29206;SDS011;16247;50.840;4.382;2022-12-18T14:07:54;36.42;;;16.67;;
29206;SDS011;16247;50.840;4.382;2022-12-18T14:10:24;37.08;;;18.90;;
29206;SDS011;16247;50.840;4.382;2022-12-18T14:12:50;32.33;;;16.25;;
29206;SDS011;16247;50.840;4.382;2022-12-18T14:17:58;30.88;;;16.55;;
29206;SDS011;16247;50.840;4.382;2022-12-18T14:20:28;34.60;;;18.10;;
29206;SDS011;16247;50.840;4.382;2022-12-18T14:22:57;34.22;;;16.42;;
29206;SDS011;16247;50.840;4.382;2022-12-18T14:25:25;38.05;;;17.52;;
29206;SDS011;16247;50.840;4.382;2022-12-18T14:28:04;35.15;;;19.45;;
29206;SDS011;16247;50.840;4.382;2022-12-18T14:30:36;35.13;;;17.30;;
29206;SDS011;16247;50.840;4.382;2022-12-18T14:33:12;38.50;;;19.20;;
29206;SDS011;16247;50.840;4.382;2022-12-18T14:35:40;39.60;;;18.77;;
29206;SDS011;16247;50.840;4.382;2022-12-18T14:38:16;38.53;;;18.52;;
29206;SDS011;16247;50.840;4.382;2022-12-18T14:40:54;37.17;;;18.63;;
29206;SDS011;16247;50.840;4.382;2022-12-18T14:43:32;38.05;;;17.02;;
29206;SDS011;16247;50.840;4.382;2022-12-18T14:46:03;34.45;;;18.02;;
29206;SDS011;16247;50.840;4.382;2022-12-18T14:48:33;38.15;;;17.73;;
29206;SDS011;16247;50.840;4.382;2022-12-18T14:58:46;37.00;;;18.10;;
29206;SDS011;16247;50.840;4.382;2022-12-18T15:01:25;40.33;;;20.23;;
29206;SDS011;16247;50.840;4.382;2022-12-18T15:06:35;34.15;;;17.42;;
29206;SDS011;16247;50.840;4.382;2022-12-18T15:09:22;39.83;;;19.65;;
29206;SDS011;16247;50.840;4.382;2022-12-18T15:11:54;40.95;;;20.23;;
29206;SDS011;16247;50.840;4.382;2022-12-18T15:16:58;36.85;;;18.83;;
29206;SDS011;16247;50.840;4.382;2022-12-18T15:19:43;36.65;;;18.58;;
29206;SDS011;16247;50.840;4.382;2022-12-18T15:24:45;48.75;;;18.38;;
29206;SDS011;16247;50.840;4.382;2022-12-18T15:32:33;38.85;;;17.73;;
29206;SDS011;16247;50.840;4.382;2022-12-18T15:35:07;36.33;;;17.63;;
29206;SDS011;16247;50.840;4.382;2022-12-18T15:40:14;36.53;;;17.75;;
29206;SDS011;16247;50.840;4.382;2022-12-18T15:42:41;40.17;;;17.70;;
29206;SDS011;16247;50.840;4.382;2022-12-18T15:45:26;35.45;;;16.73;;
29206;SDS011;16247;50.840;4.382;2022-12-18T15:47:52;40.30;;;18.65;;
29206;SDS011;16247;50.840;4.382;2022-12-18T15:50:18;33.22;;;16.60;;
29206;SDS011;16247;50.840;4.382;2022-12-18T15:52:44;39.17;;;17.70;;
29206;SDS011;16247;50.840;4.382;2022-12-18T15:55:17;34.33;;;16.85;;
29206;SDS011;16247;50.840;4.382;2022-12-18T15:58:04;38.00;;;16.98;;
29206;SDS011;16247;50.840;4.382;2022-12-18T16:00:31;36.50;;;17.33;;
29206;SDS011;16247;50.840;4.382;2022-12-18T16:02:59;33.97;;;15.45;;
29206;SDS011;16247;50.840;4.382;2022-12-18T16:05:24;34.38;;;15.95;;
29206;SDS011;16247;50.840;4.382;2022-12-18T16:07:52;35.65;;;16.45;;
29206;SDS011;16247;50.840;4.382;2022-12-18T16:10:18;35.00;;;17.73;;
29206;SDS011;16247;50.840;4.382;2022-12-18T16:12:44;37.00;;;17.50;;
29206;SDS011;16247;50.840;4.382;2022-12-18T16:15:13;42.28;;;17.40;;
29206;SDS011;16247;50.840;4.382;2022-12-18T16:17:41;32.55;;;16.10;;
29206;SDS011;16247;50.840;4.382;2022-12-18T16:20:11;34.05;;;16.85;;
29206;SDS011;16247;50.840;4.382;2022-12-18T16:22:42;38.72;;;17.63;;
29206;SDS011;16247;50.840;4.382;2022-12-18T16:25:20;39.05;;;17.88;;
29206;SDS011;16247;50.840;4.382;2022-12-18T16:27:51;36.25;;;17.65;;
29206;SDS011;16247;50.840;4.382;2022-12-18T16:30:20;34.42;;;16.23;;
29206;SDS011;16247;50.840;4.382;2022-12-18T16:32:48;34.13;;;15.75;;
29206;SDS011;16247;50.840;4.382;2022-12-18T16:35:15;40.35;;;16.00;;
29206;SDS011;16247;50.840;4.382;2022-12-18T16:37:42;30.20;;;14.60;;
29206;SDS011;16247;50.840;4.382;2022-12-18T16:40:09;40.90;;;16.17;;
29206;SDS011;16247;50.840;4.382;2022-12-18T16:42:40;37.17;;;16.33;;
29206;SDS011;16247;50.840;4.382;2022-12-18T16:45:08;34.85;;;15.77;;
29206;SDS011;16247;50.840;4.382;2022-12-18T16:47:35;36.65;;;17.08;;
29206;SDS011;16247;50.840;4.382;2022-12-18T16:50:00;38.30;;;17.63;;
29206;SDS011;16247;50.840;4.382;2022-12-18T16:52:26;34.60;;;15.52;;
29206;SDS011;16247;50.840;4.382;2022-12-18T16:54:54;28.38;;;14.85;;
29206;SDS011;16247;50.840;4.382;2022-12-18T16:57:20;32.63;;;15.20;;
29206;SDS011;16247;50.840;4.382;2022-12-18T16:59:46;36.13;;;15.52;;
29206;SDS011;16247;50.840;4.382;2022-12-18T17:02:13;30.17;;;14.75;;
29206;SDS011;16247;50.840;4.382;2022-12-18T17:04:42;31.35;;;14.82;;
29206;SDS011;16247;50.840;4.382;2022-12-18T17:07:09;37.58;;;16.48;;